KYNG/YNG METAR and TAF weather

Enter ICAO airport designator
Station Type Date Time Source
KYNG METAR 2018/12/17 16:51 UTC NOAA

KYNG 171651Z 30013G22KT 9SM SCT019 BKN025 OVC031 03/M02 A2998 RMK AO2 SLP161 BINOVC T00281017


Station Type Date Time Source
KYNG Decoded METAR 2018/12/17 16:51 UTC NOAA

YOUNGSTOWN-WARREN REG AIRPRT, OH, United States (KYNG) 41-15N 080-40W 360M
Dec 17, 2018 - 11:51 AM EST / 2018.12.17 1651 UTC
Wind: from the WNW (300 degrees) at 15 MPH (13 KT) gusting to 25 MPH (22 KT):0
Visibility: 9 mile(s):0
Sky conditions: overcast
Temperature: 37.0 F (2.8 C)
Dew Point: 28.9 F (-1.7 C)
Relative Humidity: 72%
Pressure (altimeter): 29.98 in. Hg (1015 hPa)
ob: KYNG 171651Z 30013G22KT 9SM SCT019 BKN025 OVC031 03/M02 A2998 RMK AO2 SLP161 BINOVC T00281017
cycle: 17

Station Type Date Time Source
KYNG TAF 2018/12/17 14:06 UTC NOAA

TAF
AMD KYNG 171404Z 1714/1812 28012G18KT P6SM OVC020
TEMPO 1714/1716 OVC018
FM172100 31014G22KT P6SM VCSH OVC030
FM180300 32009KT P6SM OVC025


Example: see airport list